Grange, Georgia
Current Conditions -  °F | °C
As of 8:35 AM on Monday 22 Dec 2014 (Local Time) from KOKZ Reporting Station
Haze Haze  
Wind Chill: 43°   Ceiling: 400
Heat Index: 46°   Visibility: 2mi
Dew Point: 46°   Wind: 6mph
Humidity: 100%   Direction: 70°ENE
Pressure: 30.06"   Gusts: NA
Location:  33.028°N, 82.379°W
Report Text: KOKZ 221335Z AUTO 07005KT 2SM BR OVC004 08/08 A3006 RMK AO2 T00760076
Loading
Personal Weather Stations






























Interactive Weather Map New forecast layout! Learn more

10-Day Weather Forecast

Advertisements
Track Severe Weather on mobile